createdAt,value
2019-01-11T00:00:26.259Z,130.40
2019-01-11T00:01:26.250Z,142.50
2019-01-11T00:02:26.283Z,133.30
2019-01-11T00:03:26.229Z,132.30
2019-01-11T00:04:26.216Z,113.10
2019-01-11T00:05:26.206Z,132.20
2019-01-11T00:06:26.212Z,113.50
2019-01-11T00:07:26.178Z,124.80
2019-01-11T00:08:26.193Z,127.30
2019-01-11T00:09:26.160Z,123.00
2019-01-11T00:10:26.150Z,117.80
2019-01-11T00:11:26.142Z,116.20
2019-01-11T00:12:26.138Z,118.60
2019-01-11T00:13:26.133Z,122.30
2019-01-11T00:14:26.103Z,106.20
2019-01-11T00:15:26.101Z,128.60
2019-01-11T00:16:26.081Z,103.30
2019-01-11T00:17:26.087Z,119.70
2019-01-11T00:18:26.098Z,106.90
2019-01-11T00:19:26.063Z,120.40
2019-01-11T00:20:26.043Z,116.00
2019-01-11T00:21:26.029Z,112.00
2019-01-11T00:22:26.020Z,116.70
2019-01-11T00:23:26.052Z,104.90
2019-01-11T00:24:26.006Z,114.60
2019-01-11T00:25:26.012Z,113.70
2019-01-11T00:26:25.976Z,143.10
2019-01-11T00:27:25.968Z,113.60
2019-01-11T00:28:25.953Z,116.10
2019-01-11T00:29:25.966Z,114.50
2019-01-11T00:30:25.954Z,100.60
2019-01-11T00:31:25.927Z,119.00
2019-01-11T00:32:25.914Z,115.70
2019-01-11T00:33:25.898Z,116.80
2019-01-11T00:34:25.894Z,127.50
2019-01-11T00:35:25.902Z,113.00
2019-01-11T00:36:25.864Z,100.90
2019-01-11T00:37:25.858Z,111.30
2019-01-11T00:38:25.857Z,112.00
2019-01-11T00:39:25.847Z,113.20
2019-01-11T00:40:25.859Z,94.60
2019-01-11T00:41:25.822Z,101.10
2019-01-11T00:42:25.814Z,116.00
2019-01-11T00:43:25.791Z,120.40
2019-01-11T00:44:25.785Z,122.90
2019-01-11T00:45:25.808Z,110.10
2019-01-11T00:46:25.757Z,96.80
2019-01-11T00:47:25.757Z,112.90
2019-01-11T00:48:25.739Z,100.50
2019-01-11T00:49:25.746Z,98.10
2019-01-11T00:50:25.732Z,108.30
2019-01-11T00:51:25.735Z,110.60
2019-01-11T00:52:25.701Z,116.20
2019-01-11T00:53:25.696Z,104.30
2019-01-11T00:54:25.679Z,115.80
2019-01-11T00:55:25.668Z,102.50
2019-01-11T00:56:25.692Z,111.70
2019-01-11T00:57:25.665Z,114.00
2019-01-11T00:58:25.630Z,110.30
2019-01-11T00:59:25.629Z,110.90
2019-01-11T01:00:25.607Z,123.90
2019-01-11T01:01:25.645Z,94.90
2019-01-11T01:02:25.590Z,111.80
2019-01-11T01:03:25.594Z,106.60
2019-01-11T01:04:25.584Z,112.50
2019-01-11T01:05:25.567Z,103.10
2019-01-11T01:06:25.542Z,111.20
2019-01-11T01:07:25.535Z,120.30
2019-01-11T01:08:30.539Z,116.00
2019-01-11T01:09:26.514Z,119.20
2019-01-11T01:10:25.498Z,113.40
2019-01-11T01:11:25.513Z,121.70
2019-01-11T01:12:25.485Z,115.80
2019-01-11T01:13:25.472Z,123.30
2019-01-11T01:14:25.490Z,126.20
2019-01-11T01:15:25.445Z,113.50
2019-01-11T01:16:25.442Z,125.60
2019-01-11T01:17:25.447Z,115.10
2019-01-11T01:18:25.418Z,106.70
2019-01-11T01:19:25.411Z,128.00
2019-01-11T01:20:25.423Z,120.60
2019-01-11T01:21:25.380Z,120.90
2019-01-11T01:22:25.375Z,103.00
2019-01-11T01:23:25.374Z,114.40
2019-01-11T01:24:25.353Z,115.10
2019-01-11T01:25:25.347Z,105.50
2019-01-11T01:26:25.678Z,103.80
2019-01-11T01:27:25.320Z,105.50
2019-01-11T01:28:25.316Z,110.80
2019-01-11T01:29:25.339Z,100.30
2019-01-11T01:30:25.291Z,107.70
2019-01-11T01:31:25.282Z,109.10
2019-01-11T01:32:25.291Z,119.70
2019-01-11T01:33:25.270Z,120.50
2019-01-11T01:34:25.245Z,103.60
2019-01-11T01:35:25.249Z,94.10
2019-01-11T01:36:25.224Z,115.20
2019-01-11T01:37:25.225Z,101.30
2019-01-11T01:38:25.235Z,102.50
2019-01-11T01:39:25.206Z,91.90
2019-01-11T01:40:25.193Z,111.20
2019-01-11T01:41:25.169Z,98.10
2019-01-11T01:42:25.156Z,99.60
2019-01-11T01:43:25.157Z,94.90
2019-01-11T01:44:25.164Z,113.90
2019-01-11T01:45:25.121Z,101.90
2019-01-11T01:46:25.123Z,96.60
2019-01-11T01:47:25.133Z,97.80
2019-01-11T01:48:25.088Z,97.30
2019-01-11T01:49:26.702Z,95.20
2019-01-11T01:50:25.100Z,104.40
2019-01-11T01:51:25.068Z,108.50
2019-01-11T01:52:25.052Z,94.00
2019-01-11T01:53:25.044Z,103.40
2019-01-11T01:54:25.034Z,102.80
2019-01-11T01:55:25.022Z,89.00
2019-01-11T01:56:25.030Z,93.90
2019-01-11T01:57:24.992Z,94.90
2019-01-11T01:58:24.985Z,94.50
2019-01-11T01:59:24.984Z,81.50
2019-01-11T02:00:24.965Z,93.90
2019-01-11T02:01:24.954Z,93.00
2019-01-11T02:02:24.984Z,98.40
2019-01-11T02:03:24.938Z,85.80
2019-01-11T02:04:24.943Z,94.50
2019-01-11T02:05:24.968Z,92.20
2019-01-11T02:06:24.932Z,90.00
2019-01-11T02:07:24.889Z,81.80
2019-01-11T02:08:24.906Z,86.40
2019-01-11T02:09:24.871Z,80.50
2019-01-11T02:10:24.855Z,87.10
2019-01-11T02:11:24.846Z,80.40
2019-01-11T02:12:24.866Z,73.70
2019-01-11T02:13:24.827Z,79.00
2019-01-11T02:14:24.837Z,80.90
2019-01-11T02:15:24.806Z,79.70
2019-01-11T02:16:24.795Z,78.90
2019-01-11T02:17:24.783Z,79.20
2019-01-11T02:18:24.780Z,78.90
2019-01-11T02:19:24.799Z,75.00
2019-01-11T02:20:24.746Z,79.40
2019-01-11T02:21:24.744Z,81.30
2019-01-11T02:22:24.727Z,80.30
2019-01-11T02:23:24.721Z,70.40
2019-01-11T02:24:24.721Z,79.70
2019-01-11T02:25:24.723Z,66.20
2019-01-11T02:26:24.678Z,65.10
2019-01-11T02:27:24.684Z,69.20
2019-01-11T02:28:24.729Z,77.50
2019-01-11T02:29:24.656Z,72.40
2019-01-11T02:30:24.637Z,73.80
2019-01-11T02:31:24.649Z,63.70
2019-01-11T02:32:24.623Z,65.70
2019-01-11T02:33:25.136Z,68.80
2019-01-11T02:34:24.620Z,70.50
2019-01-11T02:35:24.591Z,62.70
2019-01-11T02:36:24.604Z,64.80
2019-01-11T02:37:24.570Z,65.80
2019-01-11T02:38:24.551Z,63.30
2019-01-11T02:39:24.547Z,72.90
2019-01-11T02:40:24.529Z,66.00
2019-01-11T02:41:24.524Z,64.70
2019-01-11T02:42:24.542Z,68.90
2019-01-11T02:43:24.509Z,68.80
2019-01-11T02:44:24.491Z,63.90
2019-01-11T02:45:24.483Z,71.40
2019-01-11T02:46:24.480Z,64.20
2019-01-11T02:47:24.458Z,65.80
2019-01-11T02:48:24.474Z,66.30
2019-01-11T02:49:24.432Z,63.50
2019-01-11T02:50:24.421Z,71.00
2019-01-11T02:51:24.415Z,75.10
2019-01-11T02:52:24.412Z,67.70
2019-01-11T02:53:24.389Z,68.80
2019-01-11T02:54:24.409Z,65.90
2019-01-11T02:55:24.373Z,79.60
2019-01-11T02:56:24.364Z,74.50
2019-01-11T02:57:24.355Z,72.10
2019-01-11T02:58:24.353Z,81.80
2019-01-11T02:59:24.332Z,66.90
2019-01-11T03:00:24.330Z,69.10
2019-01-11T03:01:24.311Z,74.60
2019-01-11T03:02:24.301Z,74.60
2019-01-11T03:03:24.286Z,72.10
2019-01-11T03:04:24.305Z,82.20
2019-01-11T03:05:25.398Z,79.40
2019-01-11T03:06:24.253Z,71.20
2019-01-11T03:07:24.242Z,80.60
2019-01-11T03:08:24.237Z,73.40
2019-01-11T03:09:24.223Z,73.70
2019-01-11T03:10:24.235Z,73.90
2019-01-11T03:11:24.227Z,86.50
2019-01-11T03:12:24.194Z,79.80
2019-01-11T03:13:24.186Z,88.00
2019-01-11T03:14:24.165Z,96.00
2019-01-11T03:15:24.180Z,90.20
2019-01-11T03:16:24.154Z,100.90
2019-01-11T03:17:24.139Z,94.60
2019-01-11T03:18:24.130Z,80.30
2019-01-11T03:19:24.124Z,89.60
2019-01-11T03:20:24.112Z,96.70
2019-01-11T03:21:24.124Z,95.70
2019-01-11T03:22:24.099Z,121.10
2019-01-11T03:23:24.077Z,131.30
2019-01-11T03:24:24.069Z,106.60
2019-01-11T03:25:24.066Z,95.30
2019-01-11T03:26:24.048Z,100.40
2019-01-11T03:27:24.052Z,114.60
2019-01-11T03:28:24.019Z,105.30
2019-01-11T03:29:24.017Z,104.20
2019-01-11T03:30:24.006Z,117.50
2019-01-11T03:31:23.989Z,121.80
2019-01-11T03:32:23.981Z,109.50
2019-01-11T03:33:24.003Z,122.60
2019-01-11T03:34:23.974Z,113.90
2019-01-11T03:35:23.951Z,112.10
2019-01-11T03:36:23.936Z,118.80
2019-01-11T03:37:23.926Z,128.40
2019-01-11T03:38:23.919Z,128.10
2019-01-11T03:39:23.929Z,134.40
2019-01-11T03:40:23.893Z,136.50
2019-01-11T03:41:23.884Z,139.40
2019-01-11T03:42:23.868Z,125.10
2019-01-11T03:43:23.864Z,138.20
2019-01-11T03:44:23.849Z,137.30
2019-01-11T03:45:23.866Z,136.50
2019-01-11T03:46:23.822Z,131.50
2019-01-11T03:47:23.816Z,152.50
2019-01-11T03:48:23.827Z,154.50
2019-01-11T03:49:23.799Z,156.20
2019-01-11T03:50:23.782Z,151.40
2019-01-11T03:51:23.806Z,153.40
2019-01-11T03:52:23.766Z,155.40
2019-01-11T03:53:23.749Z,163.10
2019-01-11T03:54:23.743Z,152.80
2019-01-11T03:55:23.739Z,159.10
2019-01-11T03:56:23.736Z,161.90
2019-01-11T03:57:23.711Z,154.70
2019-01-11T03:58:23.699Z,167.10
2019-01-11T03:59:23.699Z,175.10
2019-01-11T04:00:23.679Z,176.10
2019-01-11T04:01:23.688Z,181.30
2019-01-11T04:02:23.667Z,180.90
2019-01-11T04:03:23.645Z,183.70
2019-01-11T04:04:23.640Z,209.30
2019-01-11T04:05:23.632Z,169.00
2019-01-11T04:06:23.651Z,189.90
2019-01-11T04:07:23.616Z,168.50
2019-01-11T04:08:23.603Z,200.10
2019-01-11T04:09:23.601Z,191.10
2019-01-11T04:10:23.566Z,234.00
2019-01-11T04:11:23.555Z,202.90
2019-01-11T04:12:23.575Z,200.20
2019-01-11T04:13:30.350Z,200.90
2019-01-11T04:14:24.529Z,174.30
2019-01-11T04:15:23.530Z,233.90
2019-01-11T04:16:23.502Z,216.20
2019-01-11T04:17:23.501Z,167.20
2019-01-11T04:18:23.515Z,232.30
2019-01-11T04:19:23.476Z,225.50
2019-01-11T04:20:23.457Z,237.20
2019-01-11T04:21:23.458Z,263.80
2019-01-11T04:22:23.443Z,211.40
2019-01-11T04:23:23.423Z,247.00
2019-01-11T04:24:23.431Z,218.00
2019-01-11T04:25:23.403Z,225.30
2019-01-11T04:26:23.399Z,216.70
2019-01-11T04:27:23.382Z,206.40
2019-01-11T04:28:23.382Z,209.20
2019-01-11T04:29:23.398Z,251.40
2019-01-11T04:30:23.370Z,186.70
2019-01-11T04:31:23.362Z,200.80
2019-01-11T04:32:23.338Z,214.40
2019-01-11T04:33:23.319Z,240.40
2019-01-11T04:34:23.307Z,215.30
2019-01-11T04:35:23.327Z,208.60
2019-01-11T04:36:23.298Z,227.40
2019-01-11T04:37:23.296Z,241.00
2019-01-11T04:38:23.288Z,262.80
2019-01-11T04:39:23.261Z,196.50
2019-01-11T04:40:23.268Z,214.70
2019-01-11T04:41:23.260Z,195.80
2019-01-11T04:42:23.233Z,244.60
2019-01-11T04:43:23.215Z,205.00
2019-01-11T04:44:23.203Z,217.40
2019-01-11T04:45:23.205Z,231.80
2019-01-11T04:46:23.196Z,262.80
2019-01-11T04:47:23.168Z,249.70
2019-01-11T04:48:23.168Z,231.00
2019-01-11T04:49:23.161Z,204.30
2019-01-11T04:50:23.148Z,227.90
2019-01-11T04:51:23.164Z,257.40
2019-01-11T04:52:23.124Z,225.90
2019-01-11T04:53:23.116Z,247.40
2019-01-11T04:54:23.139Z,200.30
2019-01-11T04:55:23.095Z,225.80
2019-01-11T04:56:23.074Z,229.20
2019-01-11T04:57:23.081Z,234.30
2019-01-11T04:58:23.055Z,281.30
2019-01-11T04:59:23.043Z,280.30
2019-01-11T05:00:23.037Z,255.40
2019-01-11T05:01:23.023Z,224.90
2019-01-11T05:02:23.039Z,253.90
2019-01-11T05:03:23.019Z,245.30
2019-01-11T05:04:23.004Z,227.60
2019-01-11T05:05:22.977Z,213.80
2019-01-11T05:06:22.982Z,255.80
2019-01-11T05:07:22.976Z,227.10
2019-01-11T05:08:22.960Z,273.20
2019-01-11T05:09:22.967Z,310.00
2019-01-11T05:10:22.939Z,272.30
2019-01-11T05:11:22.925Z,217.20
2019-01-11T05:12:22.933Z,256.00
2019-01-11T05:13:22.899Z,213.50
2019-01-11T05:14:22.904Z,250.30
2019-01-11T05:15:22.890Z,271.80
2019-01-11T05:16:22.868Z,287.30
2019-01-11T05:17:22.922Z,236.60
2019-01-11T05:18:22.846Z,266.00
2019-01-11T05:19:22.832Z,258.10
2019-01-11T05:20:22.837Z,299.30
2019-01-11T05:21:22.837Z,239.70
2019-01-11T05:22:22.835Z,265.50
2019-01-11T05:23:22.813Z,252.60
2019-01-11T05:24:22.781Z,307.70
2019-01-11T05:25:22.769Z,329.20
2019-01-11T05:26:22.761Z,288.70
2019-01-11T05:27:22.760Z,251.90
2019-01-11T05:28:22.769Z,237.00
2019-01-11T05:29:22.739Z,277.60
2019-01-11T05:30:22.724Z,298.50
2019-01-11T05:31:22.719Z,376.40
2019-01-11T05:32:22.707Z,226.60
2019-01-11T05:33:22.749Z,273.90
2019-01-11T05:34:22.733Z,329.00
2019-01-11T05:35:22.680Z,331.40
2019-01-11T05:36:22.665Z,254.30
2019-01-11T05:37:22.656Z,319.60
2019-01-11T05:38:22.641Z,324.10
2019-01-11T05:39:22.638Z,275.80
2019-01-11T05:40:22.660Z,275.30
2019-01-11T05:41:22.676Z,276.40
2019-01-11T05:42:22.623Z,341.30
2019-01-11T05:43:22.598Z,264.50
2019-01-11T05:44:22.580Z,294.80
2019-01-11T05:45:22.591Z,293.80
2019-01-11T05:46:22.557Z,251.70
2019-01-11T05:47:22.557Z,257.40
2019-01-11T05:48:22.538Z,274.10
2019-01-11T05:49:22.525Z,228.10
2019-01-11T05:50:24.371Z,268.90
2019-01-11T05:51:22.525Z,252.60
2019-01-11T05:52:22.501Z,277.30
2019-01-11T05:53:22.493Z,283.30
2019-01-11T05:54:22.472Z,248.10
2019-01-11T05:55:22.457Z,218.90
2019-01-11T05:56:22.447Z,240.00
2019-01-11T05:57:22.454Z,223.00
2019-01-11T05:58:22.448Z,259.00
2019-01-11T05:59:22.441Z,259.70
2019-01-11T06:00:22.406Z,223.40
2019-01-11T06:01:22.400Z,277.20
2019-01-11T06:02:22.410Z,307.70
2019-01-11T06:03:22.387Z,309.50
2019-01-11T06:04:22.370Z,302.10
2019-01-11T06:05:22.358Z,297.80
2019-01-11T06:06:22.340Z,258.50
2019-01-11T06:07:22.341Z,329.10
2019-01-11T06:08:22.350Z,239.50
2019-01-11T06:09:22.308Z,299.60
2019-01-11T06:10:22.299Z,298.00
2019-01-11T06:11:22.301Z,304.20
2019-01-11T06:12:22.288Z,286.10
2019-01-11T06:13:22.281Z,249.70
2019-01-11T06:14:22.282Z,257.90
2019-01-11T06:15:22.258Z,237.00
2019-01-11T06:16:22.243Z,276.20
2019-01-11T06:17:22.237Z,261.80
2019-01-11T06:18:22.265Z,257.00
2019-01-11T06:19:22.213Z,308.20
2019-01-11T06:20:22.218Z,315.60
2019-01-11T06:21:22.188Z,334.50
2019-01-11T06:22:22.175Z,270.30
2019-01-11T06:23:22.167Z,296.30
2019-01-11T06:24:22.164Z,291.70
2019-01-11T06:25:22.153Z,324.00
2019-01-11T06:26:22.164Z,271.60
2019-01-11T06:27:22.134Z,282.00
2019-01-11T06:28:22.110Z,258.20
2019-01-11T06:29:22.105Z,270.50
2019-01-11T06:30:22.132Z,255.90
2019-01-11T06:31:22.079Z,229.30
2019-01-11T06:32:22.068Z,256.00
2019-01-11T06:33:22.064Z,225.40
2019-01-11T06:34:22.058Z,208.60
2019-01-11T06:35:22.043Z,229.30
2019-01-11T06:36:22.071Z,229.30
2019-01-11T06:37:22.023Z,207.60
2019-01-11T06:38:22.011Z,229.60
2019-01-11T06:39:22.007Z,222.60
2019-01-11T06:40:21.997Z,237.60
2019-01-11T06:41:21.979Z,204.00
2019-01-11T06:42:21.993Z,219.00
2019-01-11T06:43:21.957Z,242.40
2019-01-11T06:44:22.064Z,244.50
2019-01-11T06:45:21.954Z,251.20
2019-01-11T06:46:21.923Z,270.60
2019-01-11T06:47:21.953Z,244.70
2019-01-11T06:48:21.932Z,246.50
2019-01-11T06:49:21.888Z,220.80
2019-01-11T06:50:21.885Z,239.20
2019-01-11T06:51:21.886Z,252.50
2019-01-11T06:52:21.880Z,233.90
2019-01-11T06:53:21.865Z,260.60
2019-01-11T06:54:21.877Z,239.90
2019-01-11T06:55:21.832Z,242.60
2019-01-11T06:56:21.837Z,232.90
2019-01-11T06:57:21.814Z,223.10
2019-01-11T06:58:21.805Z,297.60
2019-01-11T06:59:21.827Z,264.10
2019-01-11T07:00:21.780Z,235.50
2019-01-11T07:01:21.764Z,189.80
2019-01-11T07:02:22.410Z,220.20
2019-01-11T07:03:21.867Z,185.70
2019-01-11T07:04:21.732Z,203.90
2019-01-11T07:05:21.755Z,213.90
2019-01-11T07:06:21.750Z,204.80
2019-01-11T07:07:21.701Z,198.70
2019-01-11T07:08:21.708Z,211.40
2019-01-11T07:09:21.776Z,193.60
2019-01-11T07:10:21.701Z,198.40
2019-01-11T07:11:21.670Z,183.20
2019-01-11T07:12:21.658Z,200.20
2019-01-11T07:13:21.636Z,172.60
2019-01-11T07:14:21.632Z,197.40
2019-01-11T07:15:21.630Z,197.00
2019-01-11T07:16:21.665Z,176.20
2019-01-11T07:17:21.603Z,185.60
2019-01-11T07:18:21.638Z,185.20
2019-01-11T07:19:21.576Z,182.50
2019-01-11T07:20:21.577Z,178.70
2019-01-11T07:21:21.571Z,155.50
2019-01-11T07:22:21.578Z,184.60
2019-01-11T07:23:21.535Z,180.00
2019-01-11T07:24:21.527Z,163.20
2019-01-11T07:25:21.519Z,170.70
2019-01-11T07:26:21.507Z,181.60
2019-01-11T07:27:21.514Z,180.40
2019-01-11T07:28:21.612Z,190.20
2019-01-11T07:29:21.488Z,160.30
2019-01-11T07:30:21.465Z,176.60
2019-01-11T07:31:21.465Z,169.10
2019-01-11T07:32:21.440Z,163.30
2019-01-11T07:33:21.455Z,172.10
2019-01-11T07:34:21.418Z,192.40
2019-01-11T07:35:21.412Z,163.10
2019-01-11T07:36:21.419Z,176.00
2019-01-11T07:37:21.389Z,175.50
2019-01-11T07:38:21.411Z,168.00
2019-01-11T07:39:21.389Z,164.70
2019-01-11T07:40:21.363Z,170.10
2019-01-11T07:41:21.358Z,172.30
2019-01-11T07:42:21.342Z,181.50
2019-01-11T07:43:21.331Z,169.80
2019-01-11T07:44:21.357Z,190.40
2019-01-11T07:45:21.303Z,183.60
2019-01-11T07:46:21.296Z,179.70
2019-01-11T07:47:21.283Z,183.50
2019-01-11T07:48:21.283Z,179.50
2019-01-11T07:49:23.301Z,182.00
2019-01-11T07:50:21.272Z,161.80
2019-01-11T07:51:21.244Z,159.90
2019-01-11T07:52:21.233Z,189.70
2019-01-11T07:53:21.229Z,158.10
2019-01-11T07:54:21.261Z,155.80
2019-01-11T07:55:21.212Z,160.90
2019-01-11T07:56:21.196Z,138.00
2019-01-11T07:57:21.187Z,145.90
2019-01-11T07:58:21.181Z,145.10
2019-01-11T07:59:21.177Z,130.90
2019-01-11T08:00:21.185Z,134.90
2019-01-11T08:01:21.177Z,136.30
2019-01-11T08:02:21.140Z,130.30
2019-01-11T08:03:21.126Z,130.00
2019-01-11T08:04:21.126Z,129.00
2019-01-11T08:05:21.113Z,130.20
2019-01-11T08:06:21.132Z,141.00
2019-01-11T08:07:21.085Z,116.20
2019-01-11T08:08:21.087Z,125.00
2019-01-11T08:09:21.072Z,126.00
2019-01-11T08:10:21.057Z,124.90
2019-01-11T08:11:21.039Z,117.60
2019-01-11T08:12:21.066Z,127.70
2019-01-11T08:13:21.024Z,133.70
2019-01-11T08:14:21.059Z,129.90
2019-01-11T08:15:21.001Z,117.10
2019-01-11T08:16:20.994Z,111.80
2019-01-11T08:17:20.984Z,105.40
2019-01-11T08:18:20.982Z,106.60
2019-01-11T08:19:20.959Z,110.10
2019-01-11T08:20:20.966Z,100.20
2019-01-11T08:21:20.948Z,101.50
2019-01-11T08:22:20.929Z,82.40
2019-01-11T08:23:20.946Z,100.20
2019-01-11T08:24:20.912Z,88.60
2019-01-11T08:25:20.901Z,89.90
2019-01-11T08:26:20.898Z,97.40
2019-01-11T08:27:20.879Z,82.60
2019-01-11T08:28:20.866Z,82.80
2019-01-11T08:29:20.948Z,79.10
2019-01-11T08:30:20.939Z,82.30
2019-01-11T08:31:22.111Z,77.60
2019-01-11T08:32:20.829Z,77.20
2019-01-11T08:33:20.822Z,72.70
2019-01-11T08:34:20.810Z,68.10
2019-01-11T08:35:20.818Z,73.10
2019-01-11T08:36:20.790Z,78.70
2019-01-11T08:37:20.780Z,70.80
2019-01-11T08:38:20.771Z,70.20
2019-01-11T08:39:20.749Z,64.30
2019-01-11T08:40:20.755Z,65.10
2019-01-11T08:41:20.729Z,63.80
2019-01-11T08:42:20.719Z,60.10
2019-01-11T08:43:20.713Z,65.10
2019-01-11T08:44:20.707Z,68.00
2019-01-11T08:45:20.734Z,52.80
2019-01-11T08:46:20.680Z,55.80
2019-01-11T08:47:20.671Z,53.90
2019-01-11T08:48:20.660Z,50.60
2019-01-11T08:49:20.657Z,49.30
2019-01-11T08:50:20.642Z,49.60
2019-01-11T08:51:20.646Z,43.40
2019-01-11T08:52:20.617Z,49.70
2019-01-11T08:53:20.637Z,51.30
2019-01-11T08:54:20.598Z,40.90
2019-01-11T08:55:20.587Z,40.90
2019-01-11T08:56:20.600Z,51.70
2019-01-11T08:57:20.557Z,47.70
2019-01-11T08:58:20.556Z,44.70
2019-01-11T08:59:20.535Z,39.70
2019-01-11T09:00:20.529Z,34.40
2019-01-11T09:01:20.538Z,37.70
2019-01-11T09:02:20.558Z,29.90
2019-01-11T09:03:20.501Z,33.10
2019-01-11T09:04:20.490Z,33.70
2019-01-11T09:05:20.499Z,36.30
2019-01-11T09:06:20.475Z,30.70
2019-01-11T09:07:20.452Z,38.50
2019-01-11T09:08:20.446Z,30.50
2019-01-11T09:09:20.441Z,33.80
2019-01-11T09:10:22.977Z,28.90
2019-01-11T09:11:20.438Z,27.70
2019-01-11T09:12:20.398Z,28.20
2019-01-11T09:13:20.392Z,20.40
2019-01-11T09:14:20.392Z,27.30
2019-01-11T09:15:20.375Z,31.50
2019-01-11T09:16:20.713Z,30.00
2019-01-11T09:17:20.345Z,24.50
2019-01-11T09:18:20.343Z,23.70
2019-01-11T09:19:20.325Z,26.30
2019-01-11T09:20:20.355Z,30.40
2019-01-11T09:21:20.320Z,26.20
2019-01-11T09:22:20.344Z,27.80
2019-01-11T09:23:20.290Z,28.80
2019-01-11T09:24:20.312Z,21.70
2019-01-11T09:25:20.277Z,22.20
2019-01-11T09:26:20.268Z,31.70
2019-01-11T09:27:20.239Z,24.30
2019-01-11T09:28:20.254Z,20.90
2019-01-11T09:29:20.225Z,27.40
2019-01-11T09:30:20.226Z,25.20
2019-01-11T09:31:20.198Z,27.30
2019-01-11T09:32:20.191Z,22.10
2019-01-11T09:33:20.876Z,25.70
2019-01-11T09:34:20.184Z,20.30
2019-01-11T09:35:20.196Z,23.20
2019-01-11T09:36:20.157Z,22.50
2019-01-11T09:37:20.151Z,22.20
2019-01-11T09:38:20.163Z,21.20
2019-01-11T09:39:20.158Z,21.60
2019-01-11T09:40:20.101Z,17.20
2019-01-11T09:41:20.094Z,20.40
2019-01-11T09:42:20.085Z,16.90
2019-01-11T09:43:20.094Z,22.10
2019-01-11T09:44:20.070Z,17.90
2019-01-11T09:45:20.083Z,16.50
2019-01-11T09:46:20.129Z,20.30
2019-01-11T09:47:20.035Z,16.10
2019-01-11T09:48:20.043Z,16.40
2019-01-11T09:49:20.013Z,15.20
2019-01-11T09:50:20.026Z,17.20
2019-01-11T09:51:19.987Z,19.80
2019-01-11T09:52:19.984Z,16.50
2019-01-11T09:53:19.977Z,17.00
2019-01-11T09:54:19.966Z,16.10
2019-01-11T09:55:19.952Z,16.70
2019-01-11T09:56:19.951Z,17.40
2019-01-11T09:57:19.925Z,17.70
2019-01-11T09:58:19.914Z,15.40
2019-01-11T09:59:19.907Z,17.30
2019-01-11T10:00:19.901Z,18.20
2019-01-11T10:01:19.919Z,18.60
2019-01-11T10:02:19.879Z,20.20
2019-01-11T10:03:19.865Z,17.40
2019-01-11T10:04:19.859Z,20.70
2019-01-11T10:05:19.843Z,21.00
2019-01-11T10:06:19.835Z,16.00
2019-01-11T10:07:19.853Z,19.80
2019-01-11T10:08:19.814Z,22.20
2019-01-11T10:09:19.817Z,18.20
2019-01-11T10:10:19.788Z,18.20
2019-01-11T10:11:19.785Z,18.10
2019-01-11T10:12:19.793Z,17.90
2019-01-11T10:13:19.760Z,12.70
2019-01-11T10:14:19.749Z,16.50
2019-01-11T10:15:19.828Z,18.40
2019-01-11T10:16:19.732Z,15.70
2019-01-11T10:17:19.729Z,16.40
2019-01-11T10:18:19.729Z,14.20
2019-01-11T10:19:19.693Z,13.30
2019-01-11T10:20:19.687Z,15.00
2019-01-11T10:21:22.503Z,17.30
2019-01-11T10:22:19.670Z,12.60
2019-01-11T10:23:19.655Z,14.60
2019-01-11T10:24:19.672Z,13.40
2019-01-11T10:25:19.635Z,17.60
2019-01-11T10:26:19.613Z,17.40
2019-01-11T10:27:19.619Z,13.60
2019-01-11T10:28:19.605Z,16.40
2019-01-11T10:29:19.595Z,17.90
2019-01-11T10:30:19.618Z,17.20
2019-01-11T10:31:19.571Z,15.70
2019-01-11T10:32:19.606Z,14.90
2019-01-11T10:33:19.548Z,16.80
2019-01-11T10:34:19.532Z,14.30
2019-01-11T10:35:19.529Z,16.50
2019-01-11T10:36:19.552Z,15.20
2019-01-11T10:37:19.499Z,14.20
2019-01-11T10:38:19.487Z,16.70
2019-01-11T10:39:19.479Z,17.80
2019-01-11T10:40:19.525Z,15.30
2019-01-11T10:41:19.457Z,14.20
2019-01-11T10:42:19.468Z,13.90
2019-01-11T10:43:19.439Z,15.60
2019-01-11T10:44:19.430Z,14.30
2019-01-11T10:45:19.412Z,11.90
2019-01-11T10:46:19.404Z,11.60
2019-01-11T10:47:19.415Z,11.30
2019-01-11T10:48:19.389Z,11.70
2019-01-11T10:49:19.388Z,13.20
2019-01-11T10:50:19.364Z,11.00
2019-01-11T10:51:19.366Z,10.50
2019-01-11T10:52:19.390Z,10.50
2019-01-11T10:53:19.331Z,9.80
2019-01-11T10:54:19.324Z,10.90
2019-01-11T10:55:19.309Z,11.10
2019-01-11T10:56:19.303Z,11.10
2019-01-11T10:57:19.298Z,11.40
2019-01-11T10:58:19.288Z,14.90
2019-01-11T10:59:19.264Z,11.10
2019-01-11T11:00:19.255Z,9.50
2019-01-11T11:01:19.237Z,9.30
2019-01-11T11:02:19.250Z,13.60
2019-01-11T11:03:19.231Z,11.00
2019-01-11T11:04:19.216Z,8.70
2019-01-11T11:05:19.197Z,8.70
2019-01-11T11:06:19.187Z,9.30
2019-01-11T11:07:19.188Z,9.20
2019-01-11T11:08:19.169Z,6.90
2019-01-11T11:09:19.153Z,10.10
2019-01-11T11:10:19.154Z,9.90
2019-01-11T11:11:19.138Z,8.00
2019-01-11T11:12:19.143Z,8.50
2019-01-11T11:13:19.115Z,9.10
2019-01-11T11:14:19.111Z,11.40
2019-01-11T11:15:19.089Z,9.00
2019-01-11T11:16:19.159Z,6.90
2019-01-11T11:17:19.092Z,8.10
2019-01-11T11:18:19.054Z,7.30
2019-01-11T11:19:19.054Z,10.70
2019-01-11T11:20:19.037Z,6.60
2019-01-11T11:21:19.031Z,7.60
2019-01-11T11:22:19.040Z,8.00
2019-01-11T11:23:19.009Z,11.00
2019-01-11T11:24:18.997Z,9.80
2019-01-11T11:25:18.989Z,7.90
2019-01-11T11:26:18.969Z,8.40
2019-01-11T11:27:18.964Z,11.70
2019-01-11T11:28:19.003Z,11.10
2019-01-11T11:29:18.942Z,11.70
2019-01-11T11:30:18.929Z,8.00
2019-01-11T11:31:18.924Z,8.10
2019-01-11T11:32:18.913Z,8.50
2019-01-11T11:33:18.903Z,9.30
2019-01-11T11:34:18.917Z,10.50
2019-01-11T11:35:18.871Z,7.80
2019-01-11T11:36:18.862Z,8.00
2019-01-11T11:37:18.862Z,7.30
2019-01-11T11:38:18.844Z,8.90
2019-01-11T11:39:18.855Z,6.20
2019-01-11T11:40:18.842Z,7.20
2019-01-11T11:41:18.831Z,8.10
2019-01-11T11:42:18.820Z,8.30
2019-01-11T11:43:18.784Z,8.20
2019-01-11T11:44:18.780Z,7.40
2019-01-11T11:45:18.784Z,7.90
2019-01-11T11:46:18.823Z,5.90
2019-01-11T11:47:18.775Z,7.40
2019-01-11T11:48:18.731Z,6.90
2019-01-11T11:49:18.720Z,5.10
2019-01-11T11:50:18.713Z,6.80
2019-01-11T11:51:18.712Z,7.50
2019-01-11T11:52:18.725Z,7.70
2019-01-11T11:53:18.680Z,6.40
2019-01-11T11:54:18.673Z,6.30
2019-01-11T11:55:18.657Z,3.50
2019-01-11T11:56:18.649Z,5.40
2019-01-11T11:57:18.637Z,3.30
2019-01-11T11:58:18.638Z,4.70
2019-01-11T11:59:18.629Z,5.10
2019-01-11T12:00:18.610Z,7.40
2019-01-11T12:01:18.600Z,5.50
2019-01-11T12:02:19.430Z,5.30
2019-01-11T12:03:18.591Z,7.50
2019-01-11T12:04:18.556Z,6.60
2019-01-11T12:05:18.548Z,6.20
2019-01-11T12:06:18.543Z,5.80
2019-01-11T12:07:18.534Z,5.40
2019-01-11T12:08:18.520Z,5.00
2019-01-11T12:09:18.536Z,5.40
2019-01-11T12:10:18.497Z,8.00
2019-01-11T12:11:18.491Z,8.10
2019-01-11T12:12:18.485Z,8.30
2019-01-11T12:13:18.483Z,7.50
2019-01-11T12:14:18.476Z,8.10
2019-01-11T12:15:18.473Z,7.70
2019-01-11T12:16:18.443Z,8.40
2019-01-11T12:17:18.419Z,7.50
2019-01-11T12:18:18.406Z,8.60
2019-01-11T12:19:18.402Z,7.30
2019-01-11T12:20:18.390Z,6.30
2019-01-11T12:21:18.402Z,7.20
2019-01-11T12:22:18.372Z,10.00
2019-01-11T12:23:18.365Z,9.20
2019-01-11T12:24:18.343Z,8.90
2019-01-11T12:25:18.341Z,6.80
2019-01-11T12:26:18.367Z,7.40
2019-01-11T12:27:18.313Z,8.80
2019-01-11T12:28:18.332Z,10.70
2019-01-11T12:29:18.298Z,8.30
2019-01-11T12:30:18.293Z,10.90
2019-01-11T12:31:18.288Z,10.00
2019-01-11T12:32:19.706Z,8.90
2019-01-11T12:33:18.258Z,7.20
2019-01-11T12:34:18.240Z,8.90
2019-01-11T12:35:18.235Z,8.20
2019-01-11T12:36:18.225Z,9.10
2019-01-11T12:37:18.203Z,11.00
2019-01-11T12:38:18.240Z,9.20
2019-01-11T12:39:18.185Z,9.30
2019-01-11T12:40:18.178Z,8.00
2019-01-11T12:41:18.159Z,8.40
2019-01-11T12:42:18.162Z,10.50